sensor_id;sensor_type;location;lat;lon;timestamp;P1;durP1;ratioP1;P2;durP2;ratioP2
17604;SDS011;8921;50.964;6.800;2022-12-08T00:02:07;21.93;;;14.90;;
17604;SDS011;8921;50.964;6.800;2022-12-08T00:04:36;20.23;;;12.97;;
17604;SDS011;8921;50.964;6.800;2022-12-08T00:07:04;28.93;;;16.00;;
17604;SDS011;8921;50.964;6.800;2022-12-08T00:09:51;25.07;;;14.67;;
17604;SDS011;8921;50.964;6.800;2022-12-08T00:12:19;21.20;;;15.10;;
17604;SDS011;8921;50.964;6.800;2022-12-08T00:14:47;21.87;;;14.97;;
17604;SDS011;8921;50.964;6.800;2022-12-08T00:17:15;24.20;;;15.30;;
17604;SDS011;8921;50.964;6.800;2022-12-08T00:19:43;27.00;;;16.60;;
17604;SDS011;8921;50.964;6.800;2022-12-08T00:22:12;27.10;;;16.00;;
17604;SDS011;8921;50.964;6.800;2022-12-08T00:24:42;30.63;;;13.97;;
17604;SDS011;8921;50.964;6.800;2022-12-08T00:27:08;26.73;;;14.30;;
17604;SDS011;8921;50.964;6.800;2022-12-08T00:29:36;22.80;;;13.53;;
17604;SDS011;8921;50.964;6.800;2022-12-08T00:32:04;22.13;;;14.37;;
17604;SDS011;8921;50.964;6.800;2022-12-08T00:34:32;42.43;;;15.60;;
17604;SDS011;8921;50.964;6.800;2022-12-08T00:37:01;24.83;;;14.10;;
17604;SDS011;8921;50.964;6.800;2022-12-08T00:39:29;32.67;;;18.00;;
17604;SDS011;8921;50.964;6.800;2022-12-08T00:41:57;26.57;;;16.20;;
17604;SDS011;8921;50.964;6.800;2022-12-08T00:44:40;26.23;;;15.63;;
17604;SDS011;8921;50.964;6.800;2022-12-08T00:47:08;25.20;;;15.10;;
17604;SDS011;8921;50.964;6.800;2022-12-08T00:49:36;22.93;;;14.93;;
17604;SDS011;8921;50.964;6.800;2022-12-08T00:52:05;27.10;;;15.50;;
17604;SDS011;8921;50.964;6.800;2022-12-08T00:54:33;25.60;;;15.70;;
17604;SDS011;8921;50.964;6.800;2022-12-08T00:57:01;24.10;;;15.10;;
17604;SDS011;8921;50.964;6.800;2022-12-08T00:59:29;29.30;;;16.07;;
17604;SDS011;8921;50.964;6.800;2022-12-08T01:01:57;24.70;;;15.50;;
17604;SDS011;8921;50.964;6.800;2022-12-08T01:04:25;28.10;;;16.77;;
17604;SDS011;8921;50.964;6.800;2022-12-08T01:06:54;25.33;;;16.00;;
17604;SDS011;8921;50.964;6.800;2022-12-08T01:09:22;25.40;;;15.40;;
17604;SDS011;8921;50.964;6.800;2022-12-08T01:11:50;27.43;;;16.30;;
17604;SDS011;8921;50.964;6.800;2022-12-08T01:14:18;31.60;;;17.57;;
17604;SDS011;8921;50.964;6.800;2022-12-08T01:16:46;22.40;;;15.07;;
17604;SDS011;8921;50.964;6.800;2022-12-08T01:19:15;27.07;;;15.17;;
17604;SDS011;8921;50.964;6.800;2022-12-08T01:21:43;30.87;;;17.37;;
17604;SDS011;8921;50.964;6.800;2022-12-08T01:24:12;30.30;;;19.20;;
17604;SDS011;8921;50.964;6.800;2022-12-08T01:26:39;34.43;;;17.60;;
17604;SDS011;8921;50.964;6.800;2022-12-08T01:29:07;32.90;;;17.70;;
17604;SDS011;8921;50.964;6.800;2022-12-08T01:31:35;32.80;;;19.67;;
17604;SDS011;8921;50.964;6.800;2022-12-08T01:34:04;33.50;;;18.20;;
17604;SDS011;8921;50.964;6.800;2022-12-08T01:36:32;30.50;;;16.60;;
17604;SDS011;8921;50.964;6.800;2022-12-08T01:39:00;28.50;;;18.53;;
17604;SDS011;8921;50.964;6.800;2022-12-08T01:41:29;35.53;;;17.83;;
17604;SDS011;8921;50.964;6.800;2022-12-08T01:46:24;25.97;;;16.57;;
17604;SDS011;8921;50.964;6.800;2022-12-08T01:48:58;26.50;;;15.80;;
17604;SDS011;8921;50.964;6.800;2022-12-08T01:51:23;25.40;;;14.43;;
17604;SDS011;8921;50.964;6.800;2022-12-08T01:53:51;23.87;;;13.80;;
17604;SDS011;8921;50.964;6.800;2022-12-08T01:56:24;23.30;;;13.97;;
17604;SDS011;8921;50.964;6.800;2022-12-08T01:58:48;22.60;;;14.83;;
17604;SDS011;8921;50.964;6.800;2022-12-08T02:01:16;26.00;;;14.90;;
17604;SDS011;8921;50.964;6.800;2022-12-08T02:03:56;22.27;;;14.63;;
17604;SDS011;8921;50.964;6.800;2022-12-08T02:06:21;29.13;;;14.33;;
17604;SDS011;8921;50.964;6.800;2022-12-08T02:08:49;23.20;;;15.40;;
17604;SDS011;8921;50.964;6.800;2022-12-08T02:11:17;21.23;;;14.20;;
17604;SDS011;8921;50.964;6.800;2022-12-08T02:13:46;20.47;;;13.57;;
17604;SDS011;8921;50.964;6.800;2022-12-08T02:24:25;19.50;;;11.83;;
17604;SDS011;8921;50.964;6.800;2022-12-08T02:27:04;20.10;;;11.60;;
17604;SDS011;8921;50.964;6.800;2022-12-08T02:32:27;16.50;;;11.30;;
17604;SDS011;8921;50.964;6.800;2022-12-08T02:34:56;21.67;;;10.13;;
17604;SDS011;8921;50.964;6.800;2022-12-08T02:37:38;17.00;;;9.23;;
17604;SDS011;8921;50.964;6.800;2022-12-08T02:41:09;17.10;;;10.60;;
17604;SDS011;8921;50.964;6.800;2022-12-08T02:45:14;24.77;;;9.93;;
17604;SDS011;8921;50.964;6.800;2022-12-08T02:47:41;17.50;;;9.53;;
17604;SDS011;8921;50.964;6.800;2022-12-08T02:50:09;21.27;;;9.30;;
17604;SDS011;8921;50.964;6.800;2022-12-08T02:52:38;13.30;;;9.13;;
17604;SDS011;8921;50.964;6.800;2022-12-08T02:55:07;16.77;;;9.37;;
17604;SDS011;8921;50.964;6.800;2022-12-08T03:00:06;15.13;;;9.80;;
17604;SDS011;8921;50.964;6.800;2022-12-08T03:07:54;17.53;;;9.53;;
17604;SDS011;8921;50.964;6.800;2022-12-08T03:10:30;16.50;;;9.43;;
17604;SDS011;8921;50.964;6.800;2022-12-08T03:15:17;19.10;;;9.83;;
17604;SDS011;8921;50.964;6.800;2022-12-08T03:17:45;18.43;;;8.90;;
17604;SDS011;8921;50.964;6.800;2022-12-08T03:20:12;15.47;;;9.60;;
17604;SDS011;8921;50.964;6.800;2022-12-08T03:22:40;19.03;;;10.07;;
17604;SDS011;8921;50.964;6.800;2022-12-08T03:25:09;20.73;;;10.57;;
17604;SDS011;8921;50.964;6.800;2022-12-08T03:27:36;16.70;;;9.57;;
17604;SDS011;8921;50.964;6.800;2022-12-08T03:30:04;14.13;;;8.70;;
17604;SDS011;8921;50.964;6.800;2022-12-08T03:32:39;16.30;;;9.90;;
17604;SDS011;8921;50.964;6.800;2022-12-08T03:35:08;20.90;;;9.60;;
17604;SDS011;8921;50.964;6.800;2022-12-08T03:37:35;14.17;;;8.90;;
17604;SDS011;8921;50.964;6.800;2022-12-08T03:40:04;19.57;;;9.00;;
17604;SDS011;8921;50.964;6.800;2022-12-08T03:42:31;14.60;;;9.10;;
17604;SDS011;8921;50.964;6.800;2022-12-08T03:44:59;18.43;;;10.03;;
17604;SDS011;8921;50.964;6.800;2022-12-08T03:47:28;18.00;;;10.00;;
17604;SDS011;8921;50.964;6.800;2022-12-08T03:49:56;18.37;;;10.73;;
17604;SDS011;8921;50.964;6.800;2022-12-08T03:52:24;18.13;;;10.77;;
17604;SDS011;8921;50.964;6.800;2022-12-08T03:54:52;19.63;;;9.97;;
17604;SDS011;8921;50.964;6.800;2022-12-08T03:57:20;22.13;;;10.63;;
17604;SDS011;8921;50.964;6.800;2022-12-08T03:59:48;17.97;;;10.50;;
17604;SDS011;8921;50.964;6.800;2022-12-08T04:02:17;25.07;;;14.70;;
17604;SDS011;8921;50.964;6.800;2022-12-08T04:04:45;18.37;;;11.17;;
17604;SDS011;8921;50.964;6.800;2022-12-08T04:07:13;17.60;;;10.73;;
17604;SDS011;8921;50.964;6.800;2022-12-08T04:09:41;16.53;;;9.97;;
17604;SDS011;8921;50.964;6.800;2022-12-08T04:12:09;16.97;;;10.37;;
17604;SDS011;8921;50.964;6.800;2022-12-08T04:14:38;16.40;;;10.20;;
17604;SDS011;8921;50.964;6.800;2022-12-08T04:17:06;20.17;;;10.80;;
17604;SDS011;8921;50.964;6.800;2022-12-08T04:19:34;23.63;;;14.17;;
17604;SDS011;8921;50.964;6.800;2022-12-08T04:22:02;17.23;;;9.80;;
17604;SDS011;8921;50.964;6.800;2022-12-08T04:24:30;21.80;;;11.10;;
17604;SDS011;8921;50.964;6.800;2022-12-08T04:26:58;20.73;;;11.87;;
17604;SDS011;8921;50.964;6.800;2022-12-08T04:29:27;15.97;;;10.00;;
17604;SDS011;8921;50.964;6.800;2022-12-08T04:31:55;14.50;;;8.27;;
17604;SDS011;8921;50.964;6.800;2022-12-08T04:34:23;20.03;;;10.90;;
17604;SDS011;8921;50.964;6.800;2022-12-08T04:36:51;19.90;;;11.03;;
17604;SDS011;8921;50.964;6.800;2022-12-08T04:39:19;22.33;;;12.57;;
17604;SDS011;8921;50.964;6.800;2022-12-08T04:41:47;23.90;;;14.60;;
17604;SDS011;8921;50.964;6.800;2022-12-08T04:44:16;25.53;;;12.43;;
17604;SDS011;8921;50.964;6.800;2022-12-08T04:46:44;19.20;;;11.47;;
17604;SDS011;8921;50.964;6.800;2022-12-08T04:49:12;18.57;;;12.00;;
17604;SDS011;8921;50.964;6.800;2022-12-08T04:51:40;33.00;;;17.07;;
17604;SDS011;8921;50.964;6.800;2022-12-08T04:54:08;24.40;;;12.80;;
17604;SDS011;8921;50.964;6.800;2022-12-08T04:56:37;19.00;;;10.73;;
17604;SDS011;8921;50.964;6.800;2022-12-08T04:59:05;23.10;;;12.23;;
17604;SDS011;8921;50.964;6.800;2022-12-08T05:01:33;19.77;;;13.00;;
17604;SDS011;8921;50.964;6.800;2022-12-08T05:04:01;21.40;;;12.17;;
17604;SDS011;8921;50.964;6.800;2022-12-08T05:06:29;23.60;;;12.00;;
17604;SDS011;8921;50.964;6.800;2022-12-08T05:08:57;18.83;;;11.80;;
17604;SDS011;8921;50.964;6.800;2022-12-08T05:11:26;22.80;;;12.50;;
17604;SDS011;8921;50.964;6.800;2022-12-08T05:13:54;26.27;;;14.97;;
17604;SDS011;8921;50.964;6.800;2022-12-08T05:16:22;30.07;;;15.10;;
17604;SDS011;8921;50.964;6.800;2022-12-08T05:18:50;26.10;;;15.10;;
17604;SDS011;8921;50.964;6.800;2022-12-08T05:21:18;28.27;;;16.03;;
17604;SDS011;8921;50.964;6.800;2022-12-08T05:23:46;25.80;;;14.03;;
17604;SDS011;8921;50.964;6.800;2022-12-08T05:26:15;36.20;;;18.70;;
17604;SDS011;8921;50.964;6.800;2022-12-08T05:28:43;41.93;;;23.00;;
17604;SDS011;8921;50.964;6.800;2022-12-08T05:31:12;33.93;;;16.33;;
17604;SDS011;8921;50.964;6.800;2022-12-08T05:33:40;33.13;;;16.97;;
17604;SDS011;8921;50.964;6.800;2022-12-08T05:36:08;30.33;;;16.10;;
17604;SDS011;8921;50.964;6.800;2022-12-08T05:38:36;31.60;;;16.93;;
17604;SDS011;8921;50.964;6.800;2022-12-08T05:41:07;38.60;;;17.27;;
17604;SDS011;8921;50.964;6.800;2022-12-08T05:43:35;33.80;;;18.37;;
17604;SDS011;8921;50.964;6.800;2022-12-08T05:46:03;32.30;;;17.60;;
17604;SDS011;8921;50.964;6.800;2022-12-08T05:48:31;36.30;;;16.90;;
17604;SDS011;8921;50.964;6.800;2022-12-08T05:50:59;27.57;;;15.17;;
17604;SDS011;8921;50.964;6.800;2022-12-08T05:53:28;27.70;;;16.00;;
17604;SDS011;8921;50.964;6.800;2022-12-08T05:55:56;33.37;;;18.87;;
17604;SDS011;8921;50.964;6.800;2022-12-08T05:58:24;37.80;;;21.67;;
17604;SDS011;8921;50.964;6.800;2022-12-08T06:00:52;35.50;;;19.07;;
17604;SDS011;8921;50.964;6.800;2022-12-08T06:03:20;34.97;;;16.83;;
17604;SDS011;8921;50.964;6.800;2022-12-08T06:05:49;30.57;;;17.13;;
17604;SDS011;8921;50.964;6.800;2022-12-08T06:08:17;33.73;;;18.13;;
17604;SDS011;8921;50.964;6.800;2022-12-08T06:10:45;29.53;;;16.70;;
17604;SDS011;8921;50.964;6.800;2022-12-08T06:13:13;31.50;;;17.90;;
17604;SDS011;8921;50.964;6.800;2022-12-08T06:15:41;33.40;;;18.20;;
17604;SDS011;8921;50.964;6.800;2022-12-08T06:18:10;31.70;;;17.50;;
17604;SDS011;8921;50.964;6.800;2022-12-08T06:20:38;33.83;;;17.30;;
17604;SDS011;8921;50.964;6.800;2022-12-08T06:23:06;25.17;;;14.93;;
17604;SDS011;8921;50.964;6.800;2022-12-08T06:25:34;27.13;;;15.87;;
17604;SDS011;8921;50.964;6.800;2022-12-08T06:28:03;29.20;;;18.70;;
17604;SDS011;8921;50.964;6.800;2022-12-08T06:30:30;27.67;;;16.47;;
17604;SDS011;8921;50.964;6.800;2022-12-08T06:32:58;27.60;;;15.33;;
17604;SDS011;8921;50.964;6.800;2022-12-08T06:35:27;35.13;;;18.40;;
17604;SDS011;8921;50.964;6.800;2022-12-08T06:37:55;34.93;;;17.20;;
17604;SDS011;8921;50.964;6.800;2022-12-08T06:40:23;33.60;;;15.30;;
17604;SDS011;8921;50.964;6.800;2022-12-08T06:42:51;30.63;;;14.00;;
17604;SDS011;8921;50.964;6.800;2022-12-08T06:45:19;24.23;;;14.27;;
17604;SDS011;8921;50.964;6.800;2022-12-08T06:47:48;31.80;;;15.70;;
17604;SDS011;8921;50.964;6.800;2022-12-08T06:50:16;31.40;;;16.60;;
17604;SDS011;8921;50.964;6.800;2022-12-08T06:52:44;29.07;;;15.10;;
17604;SDS011;8921;50.964;6.800;2022-12-08T06:55:12;33.70;;;16.83;;
17604;SDS011;8921;50.964;6.800;2022-12-08T06:57:40;34.20;;;15.60;;
17604;SDS011;8921;50.964;6.800;2022-12-08T07:00:11;30.40;;;15.90;;
17604;SDS011;8921;50.964;6.800;2022-12-08T07:02:37;33.33;;;16.70;;
17604;SDS011;8921;50.964;6.800;2022-12-08T07:05:05;30.80;;;16.33;;
17604;SDS011;8921;50.964;6.800;2022-12-08T07:07:33;24.93;;;15.07;;
17604;SDS011;8921;50.964;6.800;2022-12-08T07:10:01;36.17;;;17.33;;
17604;SDS011;8921;50.964;6.800;2022-12-08T07:12:30;27.70;;;15.80;;
17604;SDS011;8921;50.964;6.800;2022-12-08T07:14:58;27.03;;;15.00;;
17604;SDS011;8921;50.964;6.800;2022-12-08T07:17:26;27.70;;;16.57;;
17604;SDS011;8921;50.964;6.800;2022-12-08T07:19:54;29.90;;;15.50;;
17604;SDS011;8921;50.964;6.800;2022-12-08T07:22:22;22.30;;;14.67;;
17604;SDS011;8921;50.964;6.800;2022-12-08T07:24:54;24.83;;;15.00;;
17604;SDS011;8921;50.964;6.800;2022-12-08T07:27:22;30.80;;;15.47;;
17604;SDS011;8921;50.964;6.800;2022-12-08T07:29:50;23.10;;;13.47;;
17604;SDS011;8921;50.964;6.800;2022-12-08T07:32:18;25.63;;;14.00;;
17604;SDS011;8921;50.964;6.800;2022-12-08T07:34:46;29.17;;;14.60;;
17604;SDS011;8921;50.964;6.800;2022-12-08T07:37:14;31.83;;;16.73;;
17604;SDS011;8921;50.964;6.800;2022-12-08T07:39:43;29.47;;;13.53;;
17604;SDS011;8921;50.964;6.800;2022-12-08T07:42:11;22.50;;;13.60;;
17604;SDS011;8921;50.964;6.800;2022-12-08T07:44:39;18.67;;;10.87;;
17604;SDS011;8921;50.964;6.800;2022-12-08T07:47:07;24.30;;;13.93;;
17604;SDS011;8921;50.964;6.800;2022-12-08T07:49:35;20.67;;;11.63;;
17604;SDS011;8921;50.964;6.800;2022-12-08T07:52:03;22.33;;;13.70;;
17604;SDS011;8921;50.964;6.800;2022-12-08T07:54:32;21.57;;;12.70;;
17604;SDS011;8921;50.964;6.800;2022-12-08T07:57:00;26.50;;;13.50;;
17604;SDS011;8921;50.964;6.800;2022-12-08T07:59:28;30.17;;;16.60;;
17604;SDS011;8921;50.964;6.800;2022-12-08T08:01:56;24.93;;;14.77;;
17604;SDS011;8921;50.964;6.800;2022-12-08T08:04:24;31.47;;;17.40;;
17604;SDS011;8921;50.964;6.800;2022-12-08T08:06:53;26.80;;;15.50;;
17604;SDS011;8921;50.964;6.800;2022-12-08T08:09:21;24.40;;;13.57;;
17604;SDS011;8921;50.964;6.800;2022-12-08T08:11:49;29.93;;;16.63;;
17604;SDS011;8921;50.964;6.800;2022-12-08T08:14:18;26.47;;;15.97;;
17604;SDS011;8921;50.964;6.800;2022-12-08T08:16:45;26.63;;;14.67;;
17604;SDS011;8921;50.964;6.800;2022-12-08T08:19:13;28.03;;;15.30;;
17604;SDS011;8921;50.964;6.800;2022-12-08T08:21:42;22.00;;;15.60;;
17604;SDS011;8921;50.964;6.800;2022-12-08T08:24:10;26.40;;;15.97;;
17604;SDS011;8921;50.964;6.800;2022-12-08T08:26:38;26.07;;;15.17;;
17604;SDS011;8921;50.964;6.800;2022-12-08T08:29:06;24.00;;;14.60;;
17604;SDS011;8921;50.964;6.800;2022-12-08T08:31:34;24.63;;;15.10;;
17604;SDS011;8921;50.964;6.800;2022-12-08T08:34:03;22.70;;;12.90;;
17604;SDS011;8921;50.964;6.800;2022-12-08T08:36:31;20.07;;;12.23;;
17604;SDS011;8921;50.964;6.800;2022-12-08T08:38:59;20.63;;;12.03;;
17604;SDS011;8921;50.964;6.800;2022-12-08T08:41:27;19.87;;;12.57;;
17604;SDS011;8921;50.964;6.800;2022-12-08T08:43:55;21.10;;;12.50;;
17604;SDS011;8921;50.964;6.800;2022-12-08T08:46:24;21.50;;;12.57;;
17604;SDS011;8921;50.964;6.800;2022-12-08T08:48:52;20.80;;;12.10;;
17604;SDS011;8921;50.964;6.800;2022-12-08T08:51:20;20.40;;;11.80;;
17604;SDS011;8921;50.964;6.800;2022-12-08T08:53:48;19.10;;;11.40;;
17604;SDS011;8921;50.964;6.800;2022-12-08T08:56:17;16.93;;;9.90;;
17604;SDS011;8921;50.964;6.800;2022-12-08T08:58:46;19.27;;;10.57;;
17604;SDS011;8921;50.964;6.800;2022-12-08T09:01:16;17.67;;;10.37;;
17604;SDS011;8921;50.964;6.800;2022-12-08T09:03:44;17.40;;;10.27;;
17604;SDS011;8921;50.964;6.800;2022-12-08T09:06:12;20.50;;;10.00;;
17604;SDS011;8921;50.964;6.800;2022-12-08T09:08:41;16.47;;;9.90;;
17604;SDS011;8921;50.964;6.800;2022-12-08T09:11:08;20.77;;;10.47;;
17604;SDS011;8921;50.964;6.800;2022-12-08T09:13:37;18.63;;;10.57;;
17604;SDS011;8921;50.964;6.800;2022-12-08T09:16:05;17.80;;;10.30;;
17604;SDS011;8921;50.964;6.800;2022-12-08T09:18:33;20.00;;;10.80;;
17604;SDS011;8921;50.964;6.800;2022-12-08T09:21:05;19.80;;;11.30;;
17604;SDS011;8921;50.964;6.800;2022-12-08T09:23:32;24.30;;;12.07;;
17604;SDS011;8921;50.964;6.800;2022-12-08T09:26:01;16.30;;;9.93;;
17604;SDS011;8921;50.964;6.800;2022-12-08T09:28:28;26.90;;;15.03;;
17604;SDS011;8921;50.964;6.800;2022-12-08T09:30:56;18.57;;;11.13;;
17604;SDS011;8921;50.964;6.800;2022-12-08T09:33:25;14.97;;;9.27;;
17604;SDS011;8921;50.964;6.800;2022-12-08T09:35:53;18.23;;;10.00;;
17604;SDS011;8921;50.964;6.800;2022-12-08T09:38:21;19.03;;;9.80;;
17604;SDS011;8921;50.964;6.800;2022-12-08T09:40:50;16.27;;;9.07;;
17604;SDS011;8921;50.964;6.800;2022-12-08T09:45:55;16.10;;;7.57;;
17604;SDS011;8921;50.964;6.800;2022-12-08T09:48:24;13.00;;;7.37;;
17604;SDS011;8921;50.964;6.800;2022-12-08T09:50:54;10.77;;;5.47;;
17604;SDS011;8921;50.964;6.800;2022-12-08T09:53:33;8.10;;;4.67;;
17604;SDS011;8921;50.964;6.800;2022-12-08T09:56:10;10.63;;;5.17;;
17604;SDS011;8921;50.964;6.800;2022-12-08T10:01:13;13.13;;;8.00;;
17604;SDS011;8921;50.964;6.800;2022-12-08T10:03:42;11.20;;;7.00;;
17604;SDS011;8921;50.964;6.800;2022-12-08T10:08:40;13.87;;;7.10;;
17604;SDS011;8921;50.964;6.800;2022-12-08T10:11:17;16.17;;;8.30;;
17604;SDS011;8921;50.964;6.800;2022-12-08T10:13:52;19.53;;;7.47;;
17604;SDS011;8921;50.964;6.800;2022-12-08T10:16:22;10.93;;;6.50;;
17604;SDS011;8921;50.964;6.800;2022-12-08T10:18:51;12.10;;;7.57;;
17604;SDS011;8921;50.964;6.800;2022-12-08T10:21:18;15.33;;;8.40;;
17604;SDS011;8921;50.964;6.800;2022-12-08T10:23:46;15.43;;;7.67;;
17604;SDS011;8921;50.964;6.800;2022-12-08T10:26:19;14.53;;;9.33;;
17604;SDS011;8921;50.964;6.800;2022-12-08T10:28:43;16.60;;;9.77;;
17604;SDS011;8921;50.964;6.800;2022-12-08T10:31:15;28.47;;;17.70;;
17604;SDS011;8921;50.964;6.800;2022-12-08T10:33:42;21.20;;;11.57;;
17604;SDS011;8921;50.964;6.800;2022-12-08T10:36:10;21.57;;;11.50;;
17604;SDS011;8921;50.964;6.800;2022-12-08T10:38:39;17.47;;;8.90;;
17604;SDS011;8921;50.964;6.800;2022-12-08T10:41:11;16.10;;;9.83;;
17604;SDS011;8921;50.964;6.800;2022-12-08T10:43:41;15.63;;;9.00;;
17604;SDS011;8921;50.964;6.800;2022-12-08T10:48:45;15.37;;;8.77;;
17604;SDS011;8921;50.964;6.800;2022-12-08T10:51:08;12.60;;;7.63;;
17604;SDS011;8921;50.964;6.800;2022-12-08T10:53:33;14.57;;;8.77;;
17604;SDS011;8921;50.964;6.800;2022-12-08T10:58:33;15.57;;;8.20;;
17604;SDS011;8921;50.964;6.800;2022-12-08T11:01:03;13.70;;;7.73;;
17604;SDS011;8921;50.964;6.800;2022-12-08T11:03:29;16.00;;;7.83;;
17604;SDS011;8921;50.964;6.800;2022-12-08T11:05:57;14.90;;;7.77;;
17604;SDS011;8921;50.964;6.800;2022-12-08T11:08:25;13.13;;;7.27;;
17604;SDS011;8921;50.964;6.800;2022-12-08T11:10:53;9.90;;;6.43;;
17604;SDS011;8921;50.964;6.800;2022-12-08T11:13:22;13.90;;;7.00;;
17604;SDS011;8921;50.964;6.800;2022-12-08T11:15:49;14.77;;;6.97;;
17604;SDS011;8921;50.964;6.800;2022-12-08T11:18:38;12.53;;;7.87;;
17604;SDS011;8921;50.964;6.800;2022-12-08T11:21:05;12.00;;;7.27;;
17604;SDS011;8921;50.964;6.800;2022-12-08T11:23:29;12.87;;;7.20;;
17604;SDS011;8921;50.964;6.800;2022-12-08T11:25:57;10.23;;;5.90;;
17604;SDS011;8921;50.964;6.800;2022-12-08T11:28:25;10.90;;;6.63;;
17604;SDS011;8921;50.964;6.800;2022-12-08T11:30:56;10.70;;;5.80;;
17604;SDS011;8921;50.964;6.800;2022-12-08T11:33:23;14.93;;;7.77;;
17604;SDS011;8921;50.964;6.800;2022-12-08T11:35:52;10.40;;;6.20;;
17604;SDS011;8921;50.964;6.800;2022-12-08T11:38:19;16.10;;;8.43;;
17604;SDS011;8921;50.964;6.800;2022-12-08T11:40:50;11.37;;;5.83;;
17604;SDS011;8921;50.964;6.800;2022-12-08T11:43:19;12.00;;;6.10;;
17604;SDS011;8921;50.964;6.800;2022-12-08T11:45:45;9.57;;;4.77;;
17604;SDS011;8921;50.964;6.800;2022-12-08T11:48:16;10.60;;;6.40;;
17604;SDS011;8921;50.964;6.800;2022-12-08T11:53:14;14.73;;;7.10;;
17604;SDS011;8921;50.964;6.800;2022-12-08T11:55:42;12.93;;;6.70;;
17604;SDS011;8921;50.964;6.800;2022-12-08T11:58:13;15.40;;;7.03;;
17604;SDS011;8921;50.964;6.800;2022-12-08T12:00:40;17.57;;;7.57;;
17604;SDS011;8921;50.964;6.800;2022-12-08T12:03:13;14.00;;;7.17;;
17604;SDS011;8921;50.964;6.800;2022-12-08T12:05:44;15.70;;;7.60;;
17604;SDS011;8921;50.964;6.800;2022-12-08T12:08:18;18.87;;;7.70;;
17604;SDS011;8921;50.964;6.800;2022-12-08T12:10:49;14.10;;;7.27;;
17604;SDS011;8921;50.964;6.800;2022-12-08T12:18:24;16.30;;;9.77;;
17604;SDS011;8921;50.964;6.800;2022-12-08T12:20:58;16.80;;;9.33;;
17604;SDS011;8921;50.964;6.800;2022-12-08T12:23:33;16.47;;;8.33;;
17604;SDS011;8921;50.964;6.800;2022-12-08T12:25:57;13.67;;;7.47;;
17604;SDS011;8921;50.964;6.800;2022-12-08T12:28:25;17.23;;;8.27;;
17604;SDS011;8921;50.964;6.800;2022-12-08T12:30:56;16.00;;;7.97;;
17604;SDS011;8921;50.964;6.800;2022-12-08T12:33:21;21.53;;;9.27;;
17604;SDS011;8921;50.964;6.800;2022-12-08T12:35:49;18.43;;;8.50;;
17604;SDS011;8921;50.964;6.800;2022-12-08T12:38:19;14.97;;;8.20;;
17604;SDS011;8921;50.964;6.800;2022-12-08T12:41:04;16.10;;;8.40;;
17604;SDS011;8921;50.964;6.800;2022-12-08T12:43:33;11.77;;;7.10;;
17604;SDS011;8921;50.964;6.800;2022-12-08T12:48:47;21.10;;;7.50;;
17604;SDS011;8921;50.964;6.800;2022-12-08T12:51:34;15.87;;;8.50;;
17604;SDS011;8921;50.964;6.800;2022-12-08T12:56:54;13.63;;;7.50;;
17604;SDS011;8921;50.964;6.800;2022-12-08T13:01:55;15.10;;;8.10;;
17604;SDS011;8921;50.964;6.800;2022-12-08T13:04:31;15.40;;;8.37;;
17604;SDS011;8921;50.964;6.800;2022-12-08T13:06:58;17.77;;;8.43;;
17604;SDS011;8921;50.964;6.800;2022-12-08T13:09:28;21.40;;;7.70;;
17604;SDS011;8921;50.964;6.800;2022-12-08T13:11:55;17.67;;;8.80;;
17604;SDS011;8921;50.964;6.800;2022-12-08T13:16:57;13.87;;;7.80;;
17604;SDS011;8921;50.964;6.800;2022-12-08T13:19:25;15.27;;;7.10;;
17604;SDS011;8921;50.964;6.800;2022-12-08T13:21:53;14.57;;;8.60;;
17604;SDS011;8921;50.964;6.800;2022-12-08T13:29:32;14.80;;;7.00;;
17604;SDS011;8921;50.964;6.800;2022-12-08T13:32:01;12.00;;;7.03;;
17604;SDS011;8921;50.964;6.800;2022-12-08T13:34:33;13.40;;;6.37;;
17604;SDS011;8921;50.964;6.800;2022-12-08T13:42:14;11.30;;;6.17;;
17604;SDS011;8921;50.964;6.800;2022-12-08T13:44:44;10.30;;;6.57;;
17604;SDS011;8921;50.964;6.800;2022-12-08T13:47:12;10.93;;;6.23;;
17604;SDS011;8921;50.964;6.800;2022-12-08T13:49:40;11.30;;;6.23;;
17604;SDS011;8921;50.964;6.800;2022-12-08T13:52:14;12.70;;;7.00;;
17604;SDS011;8921;50.964;6.800;2022-12-08T13:54:41;11.43;;;6.30;;
17604;SDS011;8921;50.964;6.800;2022-12-08T13:57:15;15.83;;;7.13;;
17604;SDS011;8921;50.964;6.800;2022-12-08T13:59:41;13.63;;;7.07;;
17604;SDS011;8921;50.964;6.800;2022-12-08T14:09:54;11.23;;;6.47;;
17604;SDS011;8921;50.964;6.800;2022-12-08T14:12:24;16.20;;;5.80;;
17604;SDS011;8921;50.964;6.800;2022-12-08T14:14:51;10.47;;;5.60;;
17604;SDS011;8921;50.964;6.800;2022-12-08T14:17:19;11.07;;;6.90;;
17604;SDS011;8921;50.964;6.800;2022-12-08T14:19:57;12.23;;;5.90;;
17604;SDS011;8921;50.964;6.800;2022-12-08T14:22:30;12.77;;;6.43;;
17604;SDS011;8921;50.964;6.800;2022-12-08T14:24:52;14.27;;;7.53;;
17604;SDS011;8921;50.964;6.800;2022-12-08T14:27:21;14.47;;;7.40;;
17604;SDS011;8921;50.964;6.800;2022-12-08T14:29:54;12.27;;;6.17;;
17604;SDS011;8921;50.964;6.800;2022-12-08T14:32:23;12.77;;;6.77;;
17604;SDS011;8921;50.964;6.800;2022-12-08T14:37:35;10.93;;;5.73;;
17604;SDS011;8921;50.964;6.800;2022-12-08T14:40:05;16.27;;;6.50;;
17604;SDS011;8921;50.964;6.800;2022-12-08T14:42:30;11.70;;;6.97;;
17604;SDS011;8921;50.964;6.800;2022-12-08T14:45:05;10.37;;;6.60;;
17604;SDS011;8921;50.964;6.800;2022-12-08T14:47:33;14.63;;;6.80;;
17604;SDS011;8921;50.964;6.800;2022-12-08T14:50:01;11.17;;;5.53;;
17604;SDS011;8921;50.964;6.800;2022-12-08T14:52:29;10.10;;;5.20;;
17604;SDS011;8921;50.964;6.800;2022-12-08T14:54:57;9.60;;;4.77;;
17604;SDS011;8921;50.964;6.800;2022-12-08T14:57:26;10.70;;;6.13;;
17604;SDS011;8921;50.964;6.800;2022-12-08T14:59:53;15.30;;;7.03;;
17604;SDS011;8921;50.964;6.800;2022-12-08T15:02:22;16.23;;;6.03;;
17604;SDS011;8921;50.964;6.800;2022-12-08T15:05:00;15.00;;;5.50;;
17604;SDS011;8921;50.964;6.800;2022-12-08T15:07:27;11.10;;;6.57;;
17604;SDS011;8921;50.964;6.800;2022-12-08T15:12:35;10.07;;;4.90;;
17604;SDS011;8921;50.964;6.800;2022-12-08T15:17:39;13.63;;;6.23;;
17604;SDS011;8921;50.964;6.800;2022-12-08T15:20:02;10.90;;;5.20;;
17604;SDS011;8921;50.964;6.800;2022-12-08T15:22:31;10.50;;;5.60;;
17604;SDS011;8921;50.964;6.800;2022-12-08T15:24:59;12.93;;;5.83;;
17604;SDS011;8921;50.964;6.800;2022-12-08T15:27:27;13.30;;;5.13;;
17604;SDS011;8921;50.964;6.800;2022-12-08T15:29:55;14.43;;;5.17;;
17604;SDS011;8921;50.964;6.800;2022-12-08T15:32:23;12.40;;;5.40;;
17604;SDS011;8921;50.964;6.800;2022-12-08T15:34:51;8.63;;;5.00;;
17604;SDS011;8921;50.964;6.800;2022-12-08T15:37:23;17.10;;;5.17;;
17604;SDS011;8921;50.964;6.800;2022-12-08T15:39:54;11.00;;;4.90;;
17604;SDS011;8921;50.964;6.800;2022-12-08T15:42:22;8.60;;;5.13;;
17604;SDS011;8921;50.964;6.800;2022-12-08T15:44:51;8.07;;;4.20;;
17604;SDS011;8921;50.964;6.800;2022-12-08T15:47:22;12.80;;;5.13;;
17604;SDS011;8921;50.964;6.800;2022-12-08T15:49:50;20.70;;;6.37;;
17604;SDS011;8921;50.964;6.800;2022-12-08T15:52:19;13.83;;;6.23;;
17604;SDS011;8921;50.964;6.800;2022-12-08T15:54:46;13.53;;;5.23;;
17604;SDS011;8921;50.964;6.800;2022-12-08T15:57:19;16.37;;;5.50;;
17604;SDS011;8921;50.964;6.800;2022-12-08T15:59:46;45.53;;;6.07;;
17604;SDS011;8921;50.964;6.800;2022-12-08T16:02:14;9.90;;;4.70;;
17604;SDS011;8921;50.964;6.800;2022-12-08T16:04:42;11.50;;;5.00;;
17604;SDS011;8921;50.964;6.800;2022-12-08T16:07:31;9.83;;;4.60;;
17604;SDS011;8921;50.964;6.800;2022-12-08T16:09:39;10.80;;;7.50;;
17604;SDS011;8921;50.964;6.800;2022-12-08T16:12:13;12.20;;;5.73;;
17604;SDS011;8921;50.964;6.800;2022-12-08T16:14:59;12.47;;;5.10;;